Time;durP1;ratioP1;P1;durP2;ratioP2;P2;SDS_P1;SDS_P2;PMS_P1;PMS_P2;Temp;Humidity;BMP_temperature;BMP_pressure;BME280_temperature;BME280_humidity;BME280_pressure;Samples;Min_cycle;Max_cycle;Signal;HPM_P1;HPM_P2
2021/08/27 00:01:32;;;;;;;1.27;0.78;;;;;;;14.49;95.23;99582.95;2795701;85;20968;-60
2021/08/27 00:05:34;;;;;;;2.02;0.88;;;;;;;14.54;94.84;99581.94;2796019;85;21035;-60
2021/08/27 00:09:36;;;;;;;2.65;1.12;;;;;;;14.59;94.79;99587.64;2795624;85;21027;-60
2021/08/27 00:13:39;;;;;;;1.82;0.53;;;;;;;14.62;94.11;99583.28;2795767;85;21019;-61
2021/08/27 00:17:42;;;;;;;1.27;0.60;;;;;;;14.61;93.99;99582.95;2795660;83;21067;-61
2021/08/27 00:21:50;;;;;;;1.20;0.47;;;;;;;14.62;93.94;99587.78;2795744;85;21546;-60
2021/08/27 00:25:52;;;;;;;3.70;0.55;;;;;;;14.62;94.00;99581.09;2795630;84;20984;-62
2021/08/27 00:29:55;;;;;;;2.37;0.68;;;;;;;14.66;93.35;99591.81;2776227;85;21051;-60
2021/08/27 00:33:57;;;;;;;1.20;0.65;;;;;;;14.61;93.26;99594.99;2801283;84;21098;-63
2021/08/27 00:37:59;;;;;;;1.30;1.05;;;;;;;14.60;93.39;99598.67;2808762;85;20976;-61
2021/08/27 00:42:01;;;;;;;0.78;0.78;;;;;;;14.61;93.48;99599.00;2833969;83;20992;-63
2021/08/27 00:46:04;;;;;;;3.27;1.00;;;;;;;14.67;93.23;99602.34;2856925;83;21043;-61
2021/08/27 00:50:07;;;;;;;4.58;1.27;;;;;;;14.74;92.95;99607.03;2856639;83;21022;-61
2021/08/27 00:54:12;;;;;;;2.77;1.87;;;;;;;14.81;93.20;99602.69;2824739;83;20996;-60
2021/08/27 00:58:14;;;;;;;1.47;1.37;;;;;;;14.86;92.32;99601.66;2807992;85;21031;-60
2021/08/27 01:02:16;;;;;;;1.82;1.27;;;;;;;14.84;91.80;99599.66;2807905;83;21035;-61
2021/08/27 01:06:39;;;;;;;1.95;1.40;;;;;;;14.83;92.06;99598.00;2808075;85;20972;-61
2021/08/27 01:10:45;;;;;;;1.90;1.37;;;;;;;14.83;91.69;99592.64;2808155;85;21110;-60
2021/08/27 01:15:00;;;;;;;1.27;1.15;;;;;;;14.73;91.72;99602.20;2808001;83;21055;-61
2021/08/27 01:19:07;;;;;;;2.40;1.67;;;;;;;14.67;91.92;99596.98;2805826;85;20996;-61
2021/08/27 01:23:36;;;;;;;2.45;1.72;;;;;;;14.61;92.57;99593.66;2807840;85;21003;-60
2021/08/27 01:27:40;;;;;;;3.83;1.52;;;;;;;14.62;92.97;99603.35;2807920;84;21328;-60
2021/08/27 01:32:03;;;;;;;1.50;1.40;;;;;;;14.68;93.07;99604.00;2807846;85;21035;-61
2021/08/27 01:36:08;;;;;;;1.52;1.42;;;;;;;14.73;92.71;99610.72;2801257;84;21023;-62
2021/08/27 01:40:12;;;;;;;2.35;1.32;;;;;;;14.76;92.83;99601.85;2800083;85;20993;-61
2021/08/27 01:44:15;;;;;;;4.30;2.22;;;;;;;14.80;92.68;99602.36;2799735;83;21035;-61
2021/08/27 01:48:20;;;;;;;2.27;2.05;;;;;;;14.84;92.79;99601.00;2892201;82;21090;-61
2021/08/27 01:52:22;;;;;;;2.10;1.90;;;;;;;14.93;92.52;99602.64;2891413;82;20984;-62
2021/08/27 01:56:44;;;;;;;5.42;2.50;;;;;;;14.99;92.28;99601.12;2848175;83;21012;-61
2021/08/27 02:00:47;;;;;;;2.62;2.42;;;;;;;15.07;92.42;99606.48;2848024;83;20991;-61
2021/08/27 02:04:54;;;;;;;2.10;1.85;;;;;;;15.03;91.71;99604.31;2827763;83;21040;-61
2021/08/27 02:08:57;;;;;;;2.15;1.95;;;;;;;14.98;91.79;99600.31;2848061;83;21092;-61
2021/08/27 02:13:06;;;;;;;4.37;2.17;;;;;;;14.96;92.01;99592.95;2848123;83;20969;-60
2021/08/27 02:17:09;;;;;;;4.03;2.33;;;;;;;15.02;92.46;99589.25;2848561;83;21047;-60
2021/08/27 02:21:14;;;;;;;4.28;2.22;;;;;;;15.09;92.10;99594.23;2847601;83;21059;-61
2021/08/27 02:25:21;;;;;;;9.08;2.27;;;;;;;15.09;91.68;99594.23;2848434;83;21078;-61
2021/08/27 02:29:26;;;;;;;4.03;2.67;;;;;;;15.08;91.77;99597.92;2848369;83;21040;-61
2021/08/27 02:33:30;;;;;;;2.12;1.82;;;;;;;15.04;91.89;99596.61;2849217;83;21047;-60
2021/08/27 02:37:36;;;;;;;2.33;1.65;;;;;;;15.03;92.03;99592.25;2859700;83;21011;-59
2021/08/27 02:41:38;;;;;;;3.40;2.35;;;;;;;14.99;91.96;99592.61;2859626;83;20999;-60
2021/08/27 02:45:41;;;;;;;2.35;2.15;;;;;;;14.98;92.29;99592.77;2840534;83;20977;-61
2021/08/27 02:49:54;;;;;;;3.45;2.85;;;;;;;14.98;92.56;99598.97;2811940;84;21021;-60
2021/08/27 02:54:01;;;;;;;2.70;2.45;;;;;;;14.98;93.00;99594.95;2811660;84;21318;-62
2021/08/27 02:58:18;;;;;;;4.70;3.02;;;;;;;15.02;93.03;99593.27;2811761;84;21001;-60
2021/08/27 03:02:23;;;;;;;2.77;2.47;;;;;;;15.02;93.06;99591.41;2837038;83;20995;-61
2021/08/27 03:06:29;;;;;;;3.05;2.00;;;;;;;15.05;93.15;99589.75;2859592;83;21025;-61
2021/08/27 03:10:55;;;;;;;2.87;2.45;;;;;;;15.07;93.41;99585.55;2856292;83;20964;-61
2021/08/27 03:15:00;;;;;;;4.30;2.22;;;;;;;15.09;93.03;99583.52;2859593;83;20977;-62
2021/08/27 03:20:02;;;;;;;7.30;3.75;;;;;;;15.10;92.76;99582.02;2859823;83;21043;-60
2021/08/27 03:28:46;;;;;;;2.67;2.27;;;;;;;15.14;92.40;99591.91;2856874;83;21039;-59
2021/08/27 03:32:53;;;;;;;2.45;1.90;;;;;;;15.17;92.35;99584.85;2859866;83;21027;-63
2021/08/27 03:37:00;;;;;;;2.90;1.85;;;;;;;15.16;92.11;99584.52;2859637;83;21051;-61
2021/08/27 03:41:08;;;;;;;1.77;1.67;;;;;;;15.12;92.05;99579.16;2859870;83;20964;-60
2021/08/27 03:45:12;;;;;;;3.35;1.95;;;;;;;15.12;92.02;99582.69;2859826;83;20988;-60
2021/08/27 03:49:16;;;;;;;9.13;2.37;;;;;;;15.10;92.09;99581.17;2859775;83;20968;-60
2021/08/27 03:53:18;;;;;;;4.50;2.67;;;;;;;15.13;92.43;99578.14;2859547;83;21035;-60
2021/08/27 03:57:21;;;;;;;6.42;1.75;;;;;;;15.18;92.43;99576.30;2859806;83;21039;-60
2021/08/27 04:01:24;;;;;;;2.67;2.00;;;;;;;15.26;92.55;99573.08;2848878;83;21063;-60
2021/08/27 04:05:26;;;;;;;2.05;1.85;;;;;;;15.26;91.17;99579.78;2811265;84;21304;-60
2021/08/27 04:09:32;;;;;;;2.15;1.22;;;;;;;15.25;91.07;99580.79;2811272;84;21011;-60
2021/08/27 04:13:35;;;;;;;3.95;1.87;;;;;;;15.18;90.44;99581.16;2811417;84;20992;-59
2021/08/27 04:17:39;;;;;;;3.12;1.05;;;;;;;15.08;90.25;99583.19;2811217;84;21048;-60
2021/08/27 04:21:44;;;;;;;1.55;1.42;;;;;;;15.02;90.51;99590.59;2811463;84;20960;-61
2021/08/27 04:25:45;;;;;;;2.45;1.27;;;;;;;15.02;90.75;99587.91;2821423;83;21071;-60
2021/08/27 04:29:47;;;;;;;1.45;0.90;;;;;;;14.96;91.10;99596.97;2859726;83;21015;-60
2021/08/27 04:33:49;;;;;;;0.82;0.53;;;;;;;14.96;91.42;99592.10;2843351;81;21015;-60
2021/08/27 04:37:53;;;;;;;1.50;0.42;;;;;;;14.97;91.52;99595.96;2859535;83;21842;-60
2021/08/27 04:41:55;;;;;;;0.68;0.60;;;;;;;15.04;92.13;99604.15;2859847;83;20992;-60
2021/08/27 04:45:57;;;;;;;2.08;1.02;;;;;;;15.11;92.04;99602.44;2859828;83;21047;-60
2021/08/27 04:50:00;;;;;;;2.22;0.78;;;;;;;15.19;92.18;99604.75;2853258;83;21039;-62
2021/08/27 04:54:20;;;;;;;1.80;0.57;;;;;;;15.31;92.21;99608.73;2859563;83;20976;-59
2021/08/27 04:58:25;;;;;;;2.05;0.90;;;;;;;15.49;92.16;99599.10;2859746;81;20976;-61
2021/08/27 05:02:26;;;;;;;2.33;0.80;;;;;;;15.64;91.77;99599.22;2859826;83;21034;-60
2021/08/27 05:06:29;;;;;;;3.58;1.17;;;;;;;15.86;90.95;99599.42;2859679;83;20995;-59
2021/08/27 05:10:31;;;;;;;1.12;0.95;;;;;;;16.19;91.44;99601.06;2859810;83;21016;-59
2021/08/27 05:14:33;;;;;;;2.40;0.60;;;;;;;16.62;90.34;99598.69;2861218;83;21020;-60
2021/08/27 05:18:57;;;;;;;0.50;0.50;;;;;;;17.06;87.69;99597.59;2859382;83;21015;-59
2021/08/27 05:22:59;;;;;;;0.80;0.62;;;;;;;17.41;87.05;99600.05;2859542;82;20991;-59
2021/08/27 05:27:02;;;;;;;0.40;0.30;;;;;;;17.76;84.70;99602.59;2859805;83;21000;-60
2021/08/27 05:31:04;;;;;;;0.55;0.33;;;;;;;17.75;81.69;99611.69;2859935;83;21074;-58
2021/08/27 05:35:07;;;;;;;0.90;0.62;;;;;;;17.36;81.16;99613.19;2854737;83;21037;-59
2021/08/27 05:39:09;;;;;;;0.55;0.50;;;;;;;17.24;83.43;99610.15;2842991;84;21012;-59
2021/08/27 05:43:11;;;;;;;1.12;0.70;;;;;;;17.12;83.19;99619.71;2842883;84;20968;-59
2021/08/27 05:47:13;;;;;;;3.60;0.98;;;;;;;16.93;83.38;99609.80;2843227;84;20992;-60
2021/08/27 05:51:15;;;;;;;2.05;0.70;;;;;;;16.80;84.21;99607.76;2843256;84;20976;-59
2021/08/27 05:55:17;;;;;;;0.68;0.40;;;;;;;16.61;84.75;99615.81;2842974;84;21008;-62
2021/08/27 05:59:29;;;;;;;1.40;0.85;;;;;;;16.48;86.20;99613.75;2843093;84;21016;-59
2021/08/27 06:03:30;;;;;;;1.40;1.05;;;;;;;16.34;86.24;99618.06;2822813;84;20996;-60
2021/08/27 06:07:36;;;;;;;1.12;0.95;;;;;;;16.23;87.16;99622.50;2842902;84;21087;-59
2021/08/27 06:11:38;;;;;;;1.12;0.95;;;;;;;16.25;88.20;99624.49;2843225;84;21016;-60
2021/08/27 06:15:44;;;;;;;0.93;0.68;;;;;;;16.29;88.41;99627.14;2835669;84;20976;-58
2021/08/27 06:19:44;;;;;;;1.57;1.07;;;;;;;16.28;87.90;99630.34;2835477;83;20977;-59
2021/08/27 06:23:47;;;;;;;0.80;0.55;;;;;;;16.30;88.14;99642.75;2836121;84;21115;-60
2021/08/27 06:28:08;;;;;;;1.15;0.90;;;;;;;16.26;88.39;99638.23;2836001;84;21020;-59
2021/08/27 06:32:11;;;;;;;0.70;0.60;;;;;;;16.23;87.95;99639.45;2836353;84;21047;-60
2021/08/27 06:36:13;;;;;;;2.75;1.00;;;;;;;16.26;87.72;99642.26;2837435;83;21031;-60
2021/08/27 06:40:15;;;;;;;1.15;1.05;;;;;;;16.23;87.84;99650.67;2837494;84;20965;-59
2021/08/27 06:44:17;;;;;;;1.85;0.72;;;;;;;16.23;87.65;99645.30;2837058;83;21091;-60
2021/08/27 06:48:28;;;;;;;1.30;0.95;;;;;;;16.30;88.86;99648.93;2878441;83;21059;-61
2021/08/27 06:52:31;;;;;;;1.47;0.88;;;;;;;16.51;87.93;99647.46;2853588;83;20996;-60
2021/08/27 06:56:33;;;;;;;0.60;0.60;;;;;;;16.76;87.51;99646.72;2853434;83;21015;-59
2021/08/27 07:00:36;;;;;;;1.55;0.50;;;;;;;16.89;85.33;99651.98;2853393;83;21007;-59
2021/08/27 07:04:39;;;;;;;0.57;0.50;;;;;;;16.83;84.11;99653.54;2853286;83;21019;-61
2021/08/27 07:08:41;;;;;;;0.88;0.72;;;;;;;16.69;83.62;99656.53;2853022;83;21094;-61
2021/08/27 07:12:43;;;;;;;4.33;1.55;;;;;;;16.73;84.64;99654.32;2853579;83;20995;-60
2021/08/27 07:17:10;;;;;;;0.82;0.80;;;;;;;16.86;84.14;99653.17;2853661;83;20964;-59
2021/08/27 07:21:12;;;;;;;0.70;0.70;;;;;;;17.04;83.50;99654.71;2853383;83;21036;-59
2021/08/27 07:25:15;;;;;;;0.50;0.50;;;;;;;17.30;83.40;99656.95;2853402;83;21046;-59
2021/08/27 07:29:17;;;;;;;0.78;0.68;;;;;;;17.48;81.72;99659.78;2853220;83;21085;-61
2021/08/27 07:33:24;;;;;;;1.27;1.02;;;;;;;17.65;82.01;99664.44;2853392;83;21012;-60
2021/08/27 07:38:03;;;;;;;1.65;0.95;;;;;;;17.76;80.90;99671.19;2853283;83;21454;-60
2021/08/27 07:42:08;;;;;;;1.62;1.22;;;;;;;17.82;79.91;99675.30;2853353;83;21071;-60
2021/08/27 07:46:11;;;;;;;1.42;1.32;;;;;;;17.93;78.93;99677.20;2853548;83;21087;-60
2021/08/27 07:50:16;;;;;;;3.45;1.52;;;;;;;17.93;78.63;99677.20;2853325;83;21050;-60
2021/08/27 07:54:19;;;;;;;1.67;1.55;;;;;;;17.96;79.09;99679.52;2853561;83;21533;-60
2021/08/27 07:58:21;;;;;;;2.33;1.10;;;;;;;18.07;79.22;99679.03;2853559;83;20983;-60
2021/08/27 08:02:23;;;;;;;1.55;1.40;;;;;;;18.32;79.43;99678.69;2853229;83;20972;-60
2021/08/27 08:06:25;;;;;;;3.17;1.70;;;;;;;18.51;78.37;99676.39;2853419;83;21034;-60
2021/08/27 08:10:27;;;;;;;2.08;1.80;;;;;;;19.21;78.90;99676.53;2853607;83;20968;-62
2021/08/27 08:14:43;;;;;;;4.35;1.52;;;;;;;19.52;76.39;99677.97;2853603;83;21012;-60
2021/08/27 08:18:45;;;;;;;3.55;1.60;;;;;;;19.55;74.96;99680.26;2853320;83;20992;-60
2021/08/27 08:22:47;;;;;;;2.10;1.55;;;;;;;19.39;73.51;99680.58;2853180;83;21174;-60
2021/08/27 08:26:49;;;;;;;1.57;1.47;;;;;;;19.18;74.32;99686.89;2852678;83;21007;-59
2021/08/27 08:30:52;;;;;;;1.50;1.40;;;;;;;18.89;74.56;99690.91;2853068;83;20944;-59
2021/08/27 08:34:55;;;;;;;1.62;1.42;;;;;;;18.67;75.24;99694.98;2852994;83;20968;-60
2021/08/27 08:38:56;;;;;;;1.10;0.80;;;;;;;18.32;76.44;99705.61;2853397;83;21016;-60
2021/08/27 08:43:29;;;;;;;6.60;0.62;;;;;;;17.86;77.87;99708.05;2853427;83;21031;-60
2021/08/27 08:47:36;;;;;;;2.08;0.70;;;;;;;17.50;79.62;99700.26;2853320;83;20995;-60
2021/08/27 08:51:41;;;;;;;0.65;0.53;;;;;;;17.31;80.46;99703.50;2853192;83;21039;-61
2021/08/27 08:55:44;;;;;;;1.20;1.05;;;;;;;17.25;79.61;99701.84;2827010;83;21043;-59
2021/08/27 08:59:46;;;;;;;0.53;0.50;;;;;;;17.41;80.92;99700.01;2853314;83;20983;-59
2021/08/27 09:03:48;;;;;;;1.42;0.95;;;;;;;17.64;79.88;99701.27;2853151;83;21306;-60
2021/08/27 09:07:51;;;;;;;0.57;0.50;;;;;;;17.88;78.34;99706.50;2853511;83;20972;-60
2021/08/27 09:11:54;;;;;;;3.02;0.90;;;;;;;18.08;77.56;99699.56;2853358;83;21023;-60
2021/08/27 09:16:09;;;;;;;1.37;1.00;;;;;;;18.32;76.79;99708.30;2853302;83;21062;-60
2021/08/27 09:20:14;;;;;;;0.47;0.35;;;;;;;18.61;76.30;99699.77;2853401;83;20999;-61
2021/08/27 09:24:26;;;;;;;2.67;0.55;;;;;;;19.07;74.51;99698.53;2851573;83;21003;-61
2021/08/27 09:28:28;;;;;;;1.82;0.93;;;;;;;19.43;72.67;99692.62;2850510;83;21007;-60
2021/08/27 09:32:32;;;;;;;0.53;0.53;;;;;;;19.51;72.30;99689.78;2852028;83;20984;-60
2021/08/27 09:36:36;;;;;;;0.85;0.60;;;;;;;19.70;72.18;99684.16;2853313;83;21020;-60
2021/08/27 09:40:39;;;;;;;1.35;0.95;;;;;;;19.86;70.64;99683.50;2853150;83;21035;-63
2021/08/27 09:44:52;;;;;;;1.27;0.50;;;;;;;19.97;70.48;99682.12;2853193;83;21040;-60
2021/08/27 09:48:54;;;;;;;1.07;0.50;;;;;;;20.08;70.49;99688.30;2853306;83;20992;-60
2021/08/27 09:53:04;;;;;;;1.52;0.72;;;;;;;19.98;70.13;99694.58;2853656;83;21020;-61
2021/08/27 09:57:10;;;;;;;0.57;0.42;;;;;;;19.66;71.18;99698.27;2853929;83;21020;-61
2021/08/27 10:01:12;;;;;;;0.72;0.60;;;;;;;19.47;70.74;99699.31;2853679;83;20996;-60
2021/08/27 10:05:24;;;;;;;1.22;1.17;;;;;;;19.57;71.62;99701.66;2853616;83;21016;-60
2021/08/27 10:09:46;;;;;;;3.55;0.70;;;;;;;19.60;72.79;99701.25;2853121;83;20988;-60
2021/08/27 10:13:48;;;;;;;0.95;0.72;;;;;;;19.72;71.69;99702.86;2853553;83;20972;-61
2021/08/27 10:18:07;;;;;;;1.55;0.68;;;;;;;19.64;70.79;99707.05;2853498;83;21019;-59
2021/08/27 10:22:05;;;;;;;0.40;0.33;;;;;;;19.50;71.73;99704.31;2852790;83;21008;-60
2021/08/27 10:26:31;;;;;;;1.35;0.82;;;;;;;19.47;72.76;99699.81;2850908;83;21015;-60
2021/08/27 10:30:56;;;;;;;0.55;0.50;;;;;;;19.39;74.12;99699.45;2850557;83;21004;-61
2021/08/27 10:34:58;;;;;;;0.80;0.80;;;;;;;19.29;75.43;99704.39;2853391;83;21574;-60
2021/08/27 10:39:02;;;;;;;0.68;0.68;;;;;;;19.23;76.21;99701.42;2864767;83;20999;-59
2021/08/27 10:43:54;;;;;;;1.25;1.10;;;;;;;19.30;74.63;99700.66;2865531;83;20980;-59
2021/08/27 10:48:28;;;;;;;1.00;0.90;;;;;;;19.48;75.18;99692.89;2762025;86;20985;-60
2021/08/27 10:52:37;;;;;;;1.17;0.65;;;;;;;19.80;75.21;99686.48;2762656;86;20981;-59
2021/08/27 10:56:55;;;;;;;0.98;0.82;;;;;;;20.02;75.71;99687.73;2846725;83;21026;-61
2021/08/27 11:00:58;;;;;;;1.47;0.85;;;;;;;20.19;72.49;99692.27;2865705;83;20944;-60
2021/08/27 11:05:01;;;;;;;1.95;0.80;;;;;;;20.10;72.48;99686.22;2865531;83;21039;-60
2021/08/27 11:09:31;;;;;;;0.90;0.90;;;;;;;20.16;72.88;99686.44;2865634;83;21050;-60
2021/08/27 11:13:37;;;;;;;1.25;0.42;;;;;;;20.25;71.93;99690.09;2864371;83;20968;-60
2021/08/27 11:17:39;;;;;;;1.82;1.17;;;;;;;19.98;73.39;99689.18;2865420;83;21022;-60
2021/08/27 11:21:41;;;;;;;0.57;0.57;;;;;;;19.82;73.44;99687.11;2865410;83;20995;-60
2021/08/27 11:26:05;;;;;;;0.42;0.30;;;;;;;19.79;74.66;99687.52;2865516;83;20987;-61
2021/08/27 11:30:33;;;;;;;0.70;0.60;;;;;;;19.94;77.00;99688.74;2865274;83;21028;-61
2021/08/27 11:35:11;;;;;;;1.60;0.68;;;;;;;20.08;76.73;99684.24;2844967;83;21055;-60
2021/08/27 11:39:17;;;;;;;1.25;0.60;;;;;;;20.18;75.75;99683.85;2864906;83;21008;-60
2021/08/27 11:43:57;;;;;;;1.75;0.78;;;;;;;20.23;74.15;99688.62;2865684;83;21000;-61
2021/08/27 11:48:18;;;;;;;0.62;0.30;;;;;;;20.22;74.55;99686.95;2862526;83;21078;-63
2021/08/27 11:52:26;;;;;;;0.88;0.68;;;;;;;20.22;74.89;99703.16;2865424;83;21016;-60
2021/08/27 11:56:28;;;;;;;1.07;0.37;;;;;;;20.18;74.14;99707.31;2861210;83;21016;-60
2021/08/27 12:00:44;;;;;;;2.15;1.47;;;;;;;20.06;75.64;99715.16;2865339;83;20995;-59
2021/08/27 12:05:03;;;;;;;1.70;1.15;;;;;;;19.75;76.51;99713.25;2864623;83;21015;-59
2021/08/27 12:09:12;;;;;;;0.65;0.55;;;;;;;19.15;77.35;99722.31;2865132;83;21039;-59
2021/08/27 12:13:14;;;;;;;0.95;0.60;;;;;;;18.69;79.18;99737.87;2865185;83;21019;-58
2021/08/27 12:17:23;;;;;;;1.27;0.78;;;;;;;18.31;80.70;99740.29;2865442;83;21039;-59
2021/08/27 12:21:29;;;;;;;3.35;1.17;;;;;;;18.00;82.19;99741.34;2850092;83;21058;-59
2021/08/27 12:25:53;;;;;;;;;;;;;;;;;;;;;
2021/08/27 12:29:37;;;;;;;2.30;0.28;;;;;;;17.82;83.40;99737.70;2837229;83;21039;-60
2021/08/27 12:33:40;;;;;;;0.57;0.28;;;;;;;17.91;84.38;99731.19;2868750;83;20988;-63
2021/08/27 12:37:43;;;;;;;0.45;0.30;;;;;;;18.07;84.59;99731.50;2865292;83;21023;-61
2021/08/27 12:41:45;;;;;;;0.30;0.30;;;;;;;18.22;85.73;99730.15;2865158;83;21051;-61
2021/08/27 12:45:54;;;;;;;0.72;0.37;;;;;;;18.32;84.56;99733.87;2865108;82;21055;-60
2021/08/27 12:50:37;;;;;;;0.70;0.62;;;;;;;18.36;82.87;99731.12;2865123;83;21031;-61
2021/08/27 12:54:40;;;;;;;0.45;0.40;;;;;;;18.34;82.01;99734.52;2863396;83;21311;-62
2021/08/27 12:58:49;;;;;;;0.60;0.20;;;;;;;18.13;79.93;99734.81;2865191;83;21011;-60
2021/08/27 13:02:52;;;;;;;0.50;0.40;;;;;;;17.81;80.38;99738.20;2865040;83;21047;-60
2021/08/27 13:11:06;;;;;;;0.30;0.23;;;;;;;17.41;82.44;99730.92;2863469;83;21062;-61
2021/08/27 13:15:27;;;;;;;0.40;0.20;;;;;;;17.48;83.05;99739.09;2859747;83;21051;-64
2021/08/27 13:20:19;;;;;;;0.30;0.20;;;;;;;17.61;82.82;99750.05;2827616;83;21010;-64
2021/08/27 13:24:21;;;;;;;0.20;0.10;;;;;;;17.72;82.79;99755.47;2812365;84;20983;-64
2021/08/27 13:28:31;;;;;;;0.78;0.20;;;;;;;17.74;81.37;99758.81;2812608;84;21010;-63
2021/08/27 13:32:47;;;;;;;0.15;0.00;;;;;;;17.83;82.33;99750.13;2812631;84;20970;-63
2021/08/27 13:36:49;;;;;;;1.10;0.00;;;;;;;17.91;80.57;99759.44;2827744;83;21237;-64
2021/08/27 13:40:58;;;;;;;0.23;0.20;;;;;;;17.97;81.06;99760.02;2816575;83;20999;-64
2021/08/27 13:45:02;;;;;;;1.45;0.10;;;;;;;18.02;79.77;99751.42;2811920;84;21055;-63
2021/08/27 13:49:27;;;;;;;0.20;0.20;;;;;;;17.98;79.15;99751.45;2812249;83;21494;-64
2021/08/27 13:53:30;;;;;;;0.72;0.20;;;;;;;17.91;79.86;99740.60;2845965;83;21034;-64
2021/08/27 13:57:32;;;;;;;0.70;0.30;;;;;;;17.82;80.51;99746.59;2841065;83;21094;-62
2021/08/27 14:02:12;;;;;;;0.40;0.30;;;;;;;17.67;80.44;99757.86;2859619;83;20956;-62
2021/08/27 14:06:12;;;;;;;0.25;0.25;;;;;;;17.52;81.56;99753.34;2859911;83;21020;-63
2021/08/27 14:10:14;;;;;;;1.37;0.10;;;;;;;17.39;81.64;99749.09;2860565;83;20976;-62
2021/08/27 14:14:17;;;;;;;0.17;0.15;;;;;;;17.22;81.89;99751.94;2803703;85;21040;-62
2021/08/27 14:18:30;;;;;;;0.30;0.20;;;;;;;17.11;83.01;99755.08;2812107;81;20961;-63
2021/08/27 14:22:32;;;;;;;0.60;0.35;;;;;;;17.10;84.02;99754.76;2811800;84;21013;-62
2021/08/27 14:26:45;;;;;;;3.22;0.85;;;;;;;17.02;84.31;99748.09;2812020;84;21017;-61
2021/08/27 14:30:52;;;;;;;1.37;0.65;;;;;;;16.89;84.79;99750.84;2811850;84;20966;-62
2021/08/27 14:34:55;;;;;;;3.60;0.72;;;;;;;16.86;85.35;99748.52;2812047;84;20983;-61
2021/08/27 14:38:57;;;;;;;0.37;0.23;;;;;;;16.81;85.40;99745.05;2811806;83;21018;-62
2021/08/27 14:43:54;;;;;;;0.78;0.40;;;;;;;16.80;86.21;99747.91;2811957;84;21311;-62
2021/08/27 14:47:56;;;;;;;0.62;0.60;;;;;;;16.87;86.11;99740.79;2811950;83;21030;-61
2021/08/27 14:51:58;;;;;;;0.60;0.45;;;;;;;16.88;86.10;99737.09;2812209;84;20999;-64
2021/08/27 14:55:59;;;;;;;0.53;0.23;;;;;;;16.89;85.98;99733.38;2812276;83;21105;-62
2021/08/27 15:00:01;;;;;;;0.40;0.30;;;;;;;16.96;85.42;99737.03;2811689;84;21073;-62
2021/08/27 15:04:13;;;;;;;0.75;0.50;;;;;;;17.02;85.18;99737.34;2811916;84;20995;-63
2021/08/27 15:08:15;;;;;;;0.50;0.30;;;;;;;17.14;86.11;99743.97;2811926;84;21086;-63
2021/08/27 15:12:21;;;;;;;0.42;0.40;;;;;;;17.24;86.10;99745.88;2845114;82;21001;-65
2021/08/27 15:16:20;;;;;;;1.05;0.50;;;;;;;17.43;86.35;99742.33;2885312;82;21027;-64
2021/08/27 15:20:29;;;;;;;1.22;0.95;;;;;;;17.56;85.22;99745.71;2885706;82;20969;-65
2021/08/27 15:24:31;;;;;;;1.40;1.15;;;;;;;17.64;84.05;99746.98;2885826;81;21032;-65
2021/08/27 15:28:33;;;;;;;4.03;2.27;;;;;;;17.66;84.13;99748.13;2885326;82;20989;-65
2021/08/27 15:32:37;;;;;;;6.50;3.85;;;;;;;17.75;83.46;99752.91;2885255;82;23343;-66
2021/08/27 15:36:51;;;;;;;3.17;1.95;;;;;;;17.90;82.97;99755.61;2885498;82;21016;-66
2021/08/27 15:40:53;;;;;;;3.47;1.25;;;;;;;17.88;82.26;99748.20;2885327;82;21051;-65
2021/08/27 15:44:56;;;;;;;3.22;0.93;;;;;;;17.90;82.24;99756.95;2885382;82;21131;-65
2021/08/27 15:49:23;;;;;;;1.47;0.30;;;;;;;17.97;81.99;99751.13;2837634;83;21273;-64
2021/08/27 15:53:27;;;;;;;2.15;0.53;;;;;;;18.12;81.95;99749.29;2848897;82;21004;-64
2021/08/27 15:57:36;;;;;;;1.85;0.80;;;;;;;18.23;81.72;99748.46;2885585;81;21023;-63
2021/08/27 16:01:38;;;;;;;1.00;0.90;;;;;;;18.30;81.20;99757.47;2883541;82;20953;-63
2021/08/27 16:05:41;;;;;;;1.55;0.70;;;;;;;18.22;80.52;99760.25;2882869;82;21000;-65
2021/08/27 16:09:44;;;;;;;1.95;1.15;;;;;;;18.13;81.50;99760.38;2884909;81;21047;-65
2021/08/27 16:13:47;;;;;;;11.93;5.90;;;;;;;18.01;81.32;99765.05;2879160;82;20977;-62
2021/08/27 16:17:48;;;;;;;29.87;14.95;;;;;;;17.99;82.03;99767.42;2877615;82;21083;-64
2021/08/27 16:21:51;;;;;;;8.53;5.17;;;;;;;18.06;81.67;99760.78;2877534;82;21023;-63
2021/08/27 16:25:55;;;;;;;14.65;7.50;;;;;;;18.12;80.73;99770.82;2877255;80;21044;-63
2021/08/27 16:30:08;;;;;;;5.00;3.08;;;;;;;18.07;81.27;99780.47;2876753;80;21059;-63
2021/08/27 16:38:16;;;;;;;2.92;2.55;;;;;;;17.72;82.23;99777.48;2826797;82;21071;-69
2021/08/27 16:42:17;;;;;;;2.12;1.67;;;;;;;17.65;83.22;99781.42;2838928;83;21047;-70
2021/08/27 16:46:19;;;;;;;1.75;1.30;;;;;;;17.65;82.88;99778.73;2839159;84;21086;-70
2021/08/27 16:50:22;;;;;;;2.55;1.17;;;;;;;17.60;83.25;99773.92;2877214;82;21065;-70
2021/08/27 16:54:24;;;;;;;0.30;0.30;;;;;;;17.58;84.27;99776.47;2935776;81;21020;-70
2021/08/27 16:58:26;;;;;;;1.45;0.50;;;;;;;17.65;83.48;99779.58;2911233;81;21137;-70
2021/08/27 17:02:28;;;;;;;1.47;0.80;;;;;;;17.72;82.93;99788.24;2836708;83;21074;-70
2021/08/27 17:06:30;;;;;;;1.27;0.85;;;;;;;17.75;82.63;99783.34;2886710;81;21023;-70
2021/08/27 17:10:32;;;;;;;3.22;1.10;;;;;;;17.72;81.98;99786.41;2838939;84;21086;-70
2021/08/27 17:14:34;;;;;;;0.75;0.50;;;;;;;17.72;82.25;99792.28;2888094;80;20976;-70
2021/08/27 17:18:36;;;;;;;0.90;0.62;;;;;;;17.68;82.64;99793.15;2887778;82;20999;-69
2021/08/27 17:22:37;;;;;;;1.37;0.90;;;;;;;17.67;83.08;99793.67;2839092;84;21097;-70
2021/08/27 17:26:39;;;;;;;0.50;0.37;;;;;;;17.69;83.46;99794.84;2888106;82;21046;-69
2021/08/27 17:30:41;;;;;;;1.02;0.80;;;;;;;17.69;83.30;99794.84;2888432;81;21058;-70
2021/08/27 17:34:43;;;;;;;1.05;0.95;;;;;;;17.64;83.42;99790.51;2839407;83;21137;-70
2021/08/27 17:38:45;;;;;;;0.80;0.35;;;;;;;17.59;83.80;99800.49;2889191;81;21050;-71
2021/08/27 17:42:47;;;;;;;1.57;1.05;;;;;;;17.49;83.67;99794.04;2847223;83;21007;-70
2021/08/27 17:46:49;;;;;;;2.98;1.45;;;;;;;17.46;84.17;99796.25;2846738;83;21062;-69
2021/08/27 17:50:51;;;;;;;3.30;1.65;;;;;;;17.35;84.18;99793.50;2874207;80;20983;-70
2021/08/27 17:54:53;;;;;;;5.37;1.80;;;;;;;17.30;84.35;99805.31;2896724;80;21007;-71
2021/08/27 17:58:54;;;;;;;2.12;1.92;;;;;;;17.27;84.69;99807.84;2896670;81;21007;-70
2021/08/27 18:02:57;;;;;;;3.20;1.67;;;;;;;17.25;84.60;99808.53;2896344;82;21046;-70
2021/08/27 18:07:00;;;;;;;1.47;1.37;;;;;;;17.22;84.52;99814.28;2894406;82;21000;-71
2021/08/27 18:11:02;;;;;;;2.02;1.82;;;;;;;17.20;84.82;99819.00;2858132;82;21046;-71
2021/08/27 18:15:05;;;;;;;3.12;1.52;;;;;;;17.16;85.01;99822.55;2846428;83;21014;-71
2021/08/27 18:19:07;;;;;;;3.67;1.50;;;;;;;17.15;84.88;99827.59;2847002;83;21007;-70
2021/08/27 18:23:11;;;;;;;4.22;1.87;;;;;;;17.15;85.10;99828.94;2868072;82;21007;-70
2021/08/27 18:27:12;;;;;;;2.87;1.20;;;;;;;17.14;85.23;99838.02;2864418;82;21007;-70
2021/08/27 18:31:14;;;;;;;1.52;1.42;;;;;;;17.15;85.42;99843.72;2863941;82;21003;-71
2021/08/27 18:35:18;;;;;;;2.45;1.50;;;;;;;17.18;85.53;99843.84;2865031;81;21046;-71
2021/08/27 18:39:20;;;;;;;3.80;2.62;;;;;;;17.14;85.78;99848.77;2833226;82;21039;-70
2021/08/27 18:43:22;;;;;;;3.17;1.75;;;;;;;17.01;86.76;99856.09;2871818;82;20999;-70
2021/08/27 18:47:23;;;;;;;2.20;1.65;;;;;;;16.88;87.29;99861.99;2858835;81;21003;-70
2021/08/27 18:51:25;;;;;;;2.27;1.22;;;;;;;16.88;87.75;99859.83;2861031;82;21221;-71
2021/08/27 18:55:27;;;;;;;1.67;1.57;;;;;;;16.88;87.16;99861.17;2876643;81;21072;-70
2021/08/27 18:59:29;;;;;;;1.30;1.07;;;;;;;16.77;87.38;99864.58;2881134;81;21042;-71
2021/08/27 19:03:30;;;;;;;1.50;1.30;;;;;;;16.70;87.89;99860.94;2882377;81;20967;-72
2021/08/27 19:07:32;;;;;;;2.65;1.62;;;;;;;16.67;88.26;99871.52;2876618;82;21046;-71
2021/08/27 19:11:34;;;;;;;2.65;2.45;;;;;;;16.71;88.50;99874.69;2850263;81;21058;-72
2021/08/27 19:15:36;;;;;;;2.47;2.22;;;;;;;16.76;88.36;99873.64;2847846;82;21046;-71
2021/08/27 19:19:38;;;;;;;2.62;2.37;;;;;;;16.70;87.96;99871.68;2868767;81;21007;-70
2021/08/27 19:23:41;;;;;;;3.33;2.20;;;;;;;16.66;87.85;99870.36;2888667;81;20983;-70
2021/08/27 19:27:43;;;;;;;3.70;2.80;;;;;;;16.54;87.96;99875.30;2896540;81;21061;-70
2021/08/27 19:31:44;;;;;;;6.17;3.52;;;;;;;16.42;88.42;99889.09;2873131;81;21002;-70
2021/08/27 19:35:47;;;;;;;2.95;2.42;;;;;;;16.42;88.91;99882.38;2847350;82;21094;-70